sensor_id;sensor_type;location;lat;lon;timestamp;P1;durP1;ratioP1;P2;durP2;ratioP2
72413;SDS011;60995;52.154;4.498;2023-12-28T00:01:42;15.80;;;2.55;;
72413;SDS011;60995;52.154;4.498;2023-12-28T00:03:58;24.63;;;2.97;;
72413;SDS011;60995;52.154;4.498;2023-12-28T00:06:14;16.17;;;2.95;;
72413;SDS011;60995;52.154;4.498;2023-12-28T00:08:30;15.80;;;2.50;;
72413;SDS011;60995;52.154;4.498;2023-12-28T00:10:48;12.50;;;2.28;;
72413;SDS011;60995;52.154;4.498;2023-12-28T00:13:04;19.85;;;2.83;;
72413;SDS011;60995;52.154;4.498;2023-12-28T00:15:20;19.15;;;2.72;;
72413;SDS011;60995;52.154;4.498;2023-12-28T00:17:36;16.38;;;2.63;;
72413;SDS011;60995;52.154;4.498;2023-12-28T00:19:51;14.43;;;2.70;;
72413;SDS011;60995;52.154;4.498;2023-12-28T00:22:10;15.05;;;3.13;;
72413;SDS011;60995;52.154;4.498;2023-12-28T00:24:28;11.70;;;2.35;;
72413;SDS011;60995;52.154;4.498;2023-12-28T00:26:44;16.33;;;2.80;;
72413;SDS011;60995;52.154;4.498;2023-12-28T00:29:00;11.63;;;2.60;;
72413;SDS011;60995;52.154;4.498;2023-12-28T00:31:16;10.02;;;2.20;;
72413;SDS011;60995;52.154;4.498;2023-12-28T00:33:32;14.82;;;2.75;;
72413;SDS011;60995;52.154;4.498;2023-12-28T00:35:48;12.20;;;2.20;;
72413;SDS011;60995;52.154;4.498;2023-12-28T00:38:03;10.30;;;2.08;;
72413;SDS011;60995;52.154;4.498;2023-12-28T00:40:20;10.00;;;2.42;;
72413;SDS011;60995;52.154;4.498;2023-12-28T00:42:37;13.88;;;2.47;;
72413;SDS011;60995;52.154;4.498;2023-12-28T00:44:56;15.15;;;2.47;;
72413;SDS011;60995;52.154;4.498;2023-12-28T00:47:12;13.57;;;2.50;;
72413;SDS011;60995;52.154;4.498;2023-12-28T00:49:28;8.65;;;2.03;;
72413;SDS011;60995;52.154;4.498;2023-12-28T00:51:44;13.07;;;2.83;;
72413;SDS011;60995;52.154;4.498;2023-12-28T00:54:00;15.27;;;2.50;;
72413;SDS011;60995;52.154;4.498;2023-12-28T00:56:16;13.68;;;2.08;;
72413;SDS011;60995;52.154;4.498;2023-12-28T00:58:32;10.73;;;2.35;;
72413;SDS011;60995;52.154;4.498;2023-12-28T01:00:47;9.98;;;2.22;;
72413;SDS011;60995;52.154;4.498;2023-12-28T01:03:04;8.85;;;2.17;;
72413;SDS011;60995;52.154;4.498;2023-12-28T01:05:20;11.85;;;2.10;;
72413;SDS011;60995;52.154;4.498;2023-12-28T01:07:37;15.45;;;2.65;;
72413;SDS011;60995;52.154;4.498;2023-12-28T01:09:52;9.98;;;1.83;;
72413;SDS011;60995;52.154;4.498;2023-12-28T01:12:08;9.85;;;2.03;;
72413;SDS011;60995;52.154;4.498;2023-12-28T01:14:24;12.55;;;2.67;;
72413;SDS011;60995;52.154;4.498;2023-12-28T01:16:40;14.07;;;2.15;;
72413;SDS011;60995;52.154;4.498;2023-12-28T01:18:56;14.23;;;2.10;;
72413;SDS011;60995;52.154;4.498;2023-12-28T01:21:12;15.48;;;2.00;;
72413;SDS011;60995;52.154;4.498;2023-12-28T01:23:28;14.90;;;1.98;;
72413;SDS011;60995;52.154;4.498;2023-12-28T01:25:44;13.85;;;2.45;;
72413;SDS011;60995;52.154;4.498;2023-12-28T01:28:00;8.40;;;1.80;;
72413;SDS011;60995;52.154;4.498;2023-12-28T01:30:16;10.88;;;2.00;;
72413;SDS011;60995;52.154;4.498;2023-12-28T01:32:32;10.32;;;2.00;;
72413;SDS011;60995;52.154;4.498;2023-12-28T01:34:48;13.55;;;2.10;;
72413;SDS011;60995;52.154;4.498;2023-12-28T01:37:04;14.10;;;2.70;;
72413;SDS011;60995;52.154;4.498;2023-12-28T01:39:20;9.45;;;1.83;;
72413;SDS011;60995;52.154;4.498;2023-12-28T01:41:36;8.02;;;2.05;;
72413;SDS011;60995;52.154;4.498;2023-12-28T01:43:52;7.18;;;2.22;;
72413;SDS011;60995;52.154;4.498;2023-12-28T01:46:09;10.65;;;2.30;;
72413;SDS011;60995;52.154;4.498;2023-12-28T01:48:30;14.18;;;2.20;;
72413;SDS011;60995;52.154;4.498;2023-12-28T01:50:47;11.77;;;2.10;;
72413;SDS011;60995;52.154;4.498;2023-12-28T01:53:03;10.57;;;1.90;;
72413;SDS011;60995;52.154;4.498;2023-12-28T01:55:20;11.63;;;1.90;;
72413;SDS011;60995;52.154;4.498;2023-12-28T01:57:36;9.10;;;2.08;;
72413;SDS011;60995;52.154;4.498;2023-12-28T01:59:53;9.50;;;2.60;;
72413;SDS011;60995;52.154;4.498;2023-12-28T02:02:10;6.80;;;1.70;;
72413;SDS011;60995;52.154;4.498;2023-12-28T02:04:26;8.75;;;1.92;;
72413;SDS011;60995;52.154;4.498;2023-12-28T02:06:44;10.40;;;2.10;;
72413;SDS011;60995;52.154;4.498;2023-12-28T02:09:00;11.52;;;1.88;;
72413;SDS011;60995;52.154;4.498;2023-12-28T02:11:16;12.02;;;2.08;;
72413;SDS011;60995;52.154;4.498;2023-12-28T02:13:32;10.27;;;2.03;;
72413;SDS011;60995;52.154;4.498;2023-12-28T02:15:49;9.20;;;1.98;;
72413;SDS011;60995;52.154;4.498;2023-12-28T02:18:11;14.10;;;2.67;;
72413;SDS011;60995;52.154;4.498;2023-12-28T02:20:31;10.98;;;2.25;;
72413;SDS011;60995;52.154;4.498;2023-12-28T02:22:50;10.50;;;1.90;;
72413;SDS011;60995;52.154;4.498;2023-12-28T02:25:07;10.45;;;1.80;;
72413;SDS011;60995;52.154;4.498;2023-12-28T02:27:24;8.15;;;1.77;;
72413;SDS011;60995;52.154;4.498;2023-12-28T02:29:40;10.25;;;1.70;;
72413;SDS011;60995;52.154;4.498;2023-12-28T02:31:58;10.15;;;1.90;;
72413;SDS011;60995;52.154;4.498;2023-12-28T02:34:23;15.95;;;2.47;;
72413;SDS011;60995;52.154;4.498;2023-12-28T02:36:44;12.65;;;2.38;;
72413;SDS011;60995;52.154;4.498;2023-12-28T02:39:03;15.27;;;1.92;;
72413;SDS011;60995;52.154;4.498;2023-12-28T02:41:21;15.50;;;1.95;;
72413;SDS011;60995;52.154;4.498;2023-12-28T02:43:37;15.43;;;1.88;;
72413;SDS011;60995;52.154;4.498;2023-12-28T02:45:53;14.50;;;1.92;;
72413;SDS011;60995;52.154;4.498;2023-12-28T02:48:09;11.38;;;1.77;;
72413;SDS011;60995;52.154;4.498;2023-12-28T02:50:25;15.48;;;1.85;;
72413;SDS011;60995;52.154;4.498;2023-12-28T02:52:41;12.60;;;2.00;;
72413;SDS011;60995;52.154;4.498;2023-12-28T02:54:57;10.88;;;1.80;;
72413;SDS011;60995;52.154;4.498;2023-12-28T02:57:13;14.23;;;2.08;;
72413;SDS011;60995;52.154;4.498;2023-12-28T02:59:33;8.43;;;1.67;;
72413;SDS011;60995;52.154;4.498;2023-12-28T03:01:49;13.45;;;2.03;;
72413;SDS011;60995;52.154;4.498;2023-12-28T03:04:05;11.55;;;1.90;;
72413;SDS011;60995;52.154;4.498;2023-12-28T03:06:21;18.10;;;1.83;;
72413;SDS011;60995;52.154;4.498;2023-12-28T03:08:37;7.07;;;1.45;;
72413;SDS011;60995;52.154;4.498;2023-12-28T03:10:53;10.45;;;2.33;;
72413;SDS011;60995;52.154;4.498;2023-12-28T03:13:10;18.83;;;2.95;;
72413;SDS011;60995;52.154;4.498;2023-12-28T03:15:26;16.60;;;2.60;;
72413;SDS011;60995;52.154;4.498;2023-12-28T03:17:42;9.82;;;1.90;;
72413;SDS011;60995;52.154;4.498;2023-12-28T03:19:58;9.40;;;1.70;;
72413;SDS011;60995;52.154;4.498;2023-12-28T03:22:15;17.55;;;1.80;;
72413;SDS011;60995;52.154;4.498;2023-12-28T03:24:32;8.15;;;1.77;;
72413;SDS011;60995;52.154;4.498;2023-12-28T03:26:48;14.77;;;2.28;;
72413;SDS011;60995;52.154;4.498;2023-12-28T03:29:07;9.50;;;1.75;;
72413;SDS011;60995;52.154;4.498;2023-12-28T03:31:23;13.65;;;2.00;;
72413;SDS011;60995;52.154;4.498;2023-12-28T03:33:39;16.42;;;2.33;;
72413;SDS011;60995;52.154;4.498;2023-12-28T03:35:55;13.52;;;1.63;;
72413;SDS011;60995;52.154;4.498;2023-12-28T03:38:12;10.45;;;1.88;;
72413;SDS011;60995;52.154;4.498;2023-12-28T03:40:28;14.10;;;2.00;;
72413;SDS011;60995;52.154;4.498;2023-12-28T03:42:44;14.20;;;2.15;;
72413;SDS011;60995;52.154;4.498;2023-12-28T03:45:00;13.20;;;1.80;;
72413;SDS011;60995;52.154;4.498;2023-12-28T03:47:16;11.68;;;2.05;;
72413;SDS011;60995;52.154;4.498;2023-12-28T03:49:32;13.75;;;1.80;;
72413;SDS011;60995;52.154;4.498;2023-12-28T03:51:48;15.85;;;2.60;;
72413;SDS011;60995;52.154;4.498;2023-12-28T03:54:05;16.35;;;2.35;;
72413;SDS011;60995;52.154;4.498;2023-12-28T03:56:25;14.75;;;2.03;;
72413;SDS011;60995;52.154;4.498;2023-12-28T03:58:42;10.07;;;1.50;;
72413;SDS011;60995;52.154;4.498;2023-12-28T04:00:58;12.45;;;1.73;;
72413;SDS011;60995;52.154;4.498;2023-12-28T04:03:14;10.18;;;1.63;;
72413;SDS011;60995;52.154;4.498;2023-12-28T04:05:30;13.52;;;1.90;;
72413;SDS011;60995;52.154;4.498;2023-12-28T04:07:46;14.88;;;2.03;;
72413;SDS011;60995;52.154;4.498;2023-12-28T04:10:02;15.45;;;2.03;;
72413;SDS011;60995;52.154;4.498;2023-12-28T04:12:18;14.65;;;1.92;;
72413;SDS011;60995;52.154;4.498;2023-12-28T04:14:34;13.32;;;2.10;;
72413;SDS011;60995;52.154;4.498;2023-12-28T04:16:50;11.43;;;2.03;;
72413;SDS011;60995;52.154;4.498;2023-12-28T04:19:07;13.10;;;2.22;;
72413;SDS011;60995;52.154;4.498;2023-12-28T04:21:23;12.85;;;2.05;;
72413;SDS011;60995;52.154;4.498;2023-12-28T04:23:40;14.73;;;2.03;;
72413;SDS011;60995;52.154;4.498;2023-12-28T04:25:58;19.33;;;2.35;;
72413;SDS011;60995;52.154;4.498;2023-12-28T04:28:14;15.80;;;2.30;;
72413;SDS011;60995;52.154;4.498;2023-12-28T04:30:30;20.83;;;3.17;;
72413;SDS011;60995;52.154;4.498;2023-12-28T04:32:46;18.00;;;1.95;;
72413;SDS011;60995;52.154;4.498;2023-12-28T04:35:02;21.15;;;2.90;;
72413;SDS011;60995;52.154;4.498;2023-12-28T04:37:19;17.15;;;2.47;;
72413;SDS011;60995;52.154;4.498;2023-12-28T04:39:35;15.68;;;1.92;;
72413;SDS011;60995;52.154;4.498;2023-12-28T04:41:51;18.60;;;2.53;;
72413;SDS011;60995;52.154;4.498;2023-12-28T04:44:09;19.42;;;3.22;;
72413;SDS011;60995;52.154;4.498;2023-12-28T04:46:25;19.38;;;2.35;;
72413;SDS011;60995;52.154;4.498;2023-12-28T04:48:41;11.68;;;2.15;;
72413;SDS011;60995;52.154;4.498;2023-12-28T04:50:57;23.15;;;2.67;;
72413;SDS011;60995;52.154;4.498;2023-12-28T04:53:13;20.02;;;2.45;;
72413;SDS011;60995;52.154;4.498;2023-12-28T04:55:29;17.83;;;3.00;;
72413;SDS011;60995;52.154;4.498;2023-12-28T04:57:45;16.95;;;1.90;;
72413;SDS011;60995;52.154;4.498;2023-12-28T05:00:01;18.77;;;2.67;;
72413;SDS011;60995;52.154;4.498;2023-12-28T05:02:18;22.67;;;3.28;;
72413;SDS011;60995;52.154;4.498;2023-12-28T05:04:37;29.95;;;3.53;;
72413;SDS011;60995;52.154;4.498;2023-12-28T05:06:56;18.33;;;2.55;;
72413;SDS011;60995;52.154;4.498;2023-12-28T05:09:12;21.45;;;2.45;;
72413;SDS011;60995;52.154;4.498;2023-12-28T05:11:28;13.38;;;1.90;;
72413;SDS011;60995;52.154;4.498;2023-12-28T05:13:44;23.70;;;3.33;;
72413;SDS011;60995;52.154;4.498;2023-12-28T05:16:00;15.57;;;2.17;;
72413;SDS011;60995;52.154;4.498;2023-12-28T05:18:19;21.15;;;2.65;;
72413;SDS011;60995;52.154;4.498;2023-12-28T05:20:35;23.63;;;3.15;;
72413;SDS011;60995;52.154;4.498;2023-12-28T05:22:51;21.10;;;3.03;;
72413;SDS011;60995;52.154;4.498;2023-12-28T05:25:07;22.02;;;1.75;;
72413;SDS011;60995;52.154;4.498;2023-12-28T05:27:23;19.83;;;2.58;;
72413;SDS011;60995;52.154;4.498;2023-12-28T05:29:39;16.52;;;2.60;;
72413;SDS011;60995;52.154;4.498;2023-12-28T05:31:58;17.73;;;3.25;;
72413;SDS011;60995;52.154;4.498;2023-12-28T05:34:14;19.48;;;2.72;;
72413;SDS011;60995;52.154;4.498;2023-12-28T05:36:30;20.85;;;2.72;;
72413;SDS011;60995;52.154;4.498;2023-12-28T05:38:46;23.95;;;2.97;;
72413;SDS011;60995;52.154;4.498;2023-12-28T05:41:01;29.10;;;3.22;;
72413;SDS011;60995;52.154;4.498;2023-12-28T05:43:17;22.92;;;2.75;;
72413;SDS011;60995;52.154;4.498;2023-12-28T05:45:33;30.30;;;3.17;;
72413;SDS011;60995;52.154;4.498;2023-12-28T05:47:49;17.48;;;2.80;;
72413;SDS011;60995;52.154;4.498;2023-12-28T05:50:05;24.88;;;2.90;;
72413;SDS011;60995;52.154;4.498;2023-12-28T05:52:23;25.67;;;3.72;;
72413;SDS011;60995;52.154;4.498;2023-12-28T05:54:39;24.55;;;3.08;;
72413;SDS011;60995;52.154;4.498;2023-12-28T05:56:55;18.35;;;3.47;;
72413;SDS011;60995;52.154;4.498;2023-12-28T05:59:11;24.33;;;3.42;;
72413;SDS011;60995;52.154;4.498;2023-12-28T06:01:27;20.75;;;2.50;;
72413;SDS011;60995;52.154;4.498;2023-12-28T06:03:43;20.98;;;3.45;;
72413;SDS011;60995;52.154;4.498;2023-12-28T06:05:58;20.90;;;2.90;;
72413;SDS011;60995;52.154;4.498;2023-12-28T06:08:14;31.58;;;3.78;;
72413;SDS011;60995;52.154;4.498;2023-12-28T06:10:30;20.55;;;2.85;;
72413;SDS011;60995;52.154;4.498;2023-12-28T06:12:46;28.27;;;4.05;;
72413;SDS011;60995;52.154;4.498;2023-12-28T06:15:02;24.10;;;3.70;;
72413;SDS011;60995;52.154;4.498;2023-12-28T06:17:18;18.17;;;2.75;;
72413;SDS011;60995;52.154;4.498;2023-12-28T06:19:34;28.02;;;3.35;;
72413;SDS011;60995;52.154;4.498;2023-12-28T06:21:50;31.48;;;3.80;;
72413;SDS011;60995;52.154;4.498;2023-12-28T06:24:06;31.70;;;3.80;;
72413;SDS011;60995;52.154;4.498;2023-12-28T06:26:22;25.35;;;3.63;;
72413;SDS011;60995;52.154;4.498;2023-12-28T06:28:38;30.27;;;3.53;;
72413;SDS011;60995;52.154;4.498;2023-12-28T06:30:54;17.27;;;2.60;;
72413;SDS011;60995;52.154;4.498;2023-12-28T06:33:10;30.52;;;3.42;;
72413;SDS011;60995;52.154;4.498;2023-12-28T06:35:26;34.22;;;3.47;;
72413;SDS011;60995;52.154;4.498;2023-12-28T06:37:42;30.90;;;4.30;;
72413;SDS011;60995;52.154;4.498;2023-12-28T06:39:58;27.58;;;3.95;;
72413;SDS011;60995;52.154;4.498;2023-12-28T06:42:14;31.02;;;3.65;;
72413;SDS011;60995;52.154;4.498;2023-12-28T06:44:30;26.17;;;3.58;;
72413;SDS011;60995;52.154;4.498;2023-12-28T06:46:46;29.95;;;4.38;;
72413;SDS011;60995;52.154;4.498;2023-12-28T06:49:04;30.85;;;3.28;;
72413;SDS011;60995;52.154;4.498;2023-12-28T06:51:21;29.17;;;3.33;;
72413;SDS011;60995;52.154;4.498;2023-12-28T06:53:38;36.00;;;4.38;;
72413;SDS011;60995;52.154;4.498;2023-12-28T06:55:54;28.33;;;3.85;;
72413;SDS011;60995;52.154;4.498;2023-12-28T06:58:10;31.13;;;4.13;;
72413;SDS011;60995;52.154;4.498;2023-12-28T07:00:26;38.38;;;4.50;;
72413;SDS011;60995;52.154;4.498;2023-12-28T07:02:42;30.73;;;4.97;;
72413;SDS011;60995;52.154;4.498;2023-12-28T07:04:58;28.77;;;4.10;;
72413;SDS011;60995;52.154;4.498;2023-12-28T07:07:14;40.35;;;4.00;;
72413;SDS011;60995;52.154;4.498;2023-12-28T07:09:30;28.30;;;3.28;;
72413;SDS011;60995;52.154;4.498;2023-12-28T07:11:46;31.52;;;3.78;;
72413;SDS011;60995;52.154;4.498;2023-12-28T07:14:02;26.85;;;4.38;;
72413;SDS011;60995;52.154;4.498;2023-12-28T07:16:18;31.23;;;4.20;;
72413;SDS011;60995;52.154;4.498;2023-12-28T07:18:34;27.13;;;3.83;;
72413;SDS011;60995;52.154;4.498;2023-12-28T07:20:50;31.80;;;4.28;;
72413;SDS011;60995;52.154;4.498;2023-12-28T07:23:06;28.33;;;3.67;;
72413;SDS011;60995;52.154;4.498;2023-12-28T07:25:22;29.00;;;3.38;;
72413;SDS011;60995;52.154;4.498;2023-12-28T07:27:38;23.33;;;3.55;;
72413;SDS011;60995;52.154;4.498;2023-12-28T07:29:54;28.55;;;3.85;;
72413;SDS011;60995;52.154;4.498;2023-12-28T07:32:10;21.90;;;3.63;;
72413;SDS011;60995;52.154;4.498;2023-12-28T07:34:26;32.08;;;4.70;;
72413;SDS011;60995;52.154;4.498;2023-12-28T07:36:43;18.92;;;2.55;;
72413;SDS011;60995;52.154;4.498;2023-12-28T07:38:59;23.15;;;2.90;;
72413;SDS011;60995;52.154;4.498;2023-12-28T07:41:15;26.58;;;3.10;;
72413;SDS011;60995;52.154;4.498;2023-12-28T07:43:31;28.70;;;3.70;;
72413;SDS011;60995;52.154;4.498;2023-12-28T07:45:47;27.85;;;3.50;;
72413;SDS011;60995;52.154;4.498;2023-12-28T07:48:03;31.83;;;4.65;;
72413;SDS011;60995;52.154;4.498;2023-12-28T07:50:19;107.07;;;7.13;;
72413;SDS011;60995;52.154;4.498;2023-12-28T07:52:35;21.98;;;3.00;;
72413;SDS011;60995;52.154;4.498;2023-12-28T07:54:51;27.25;;;3.55;;
72413;SDS011;60995;52.154;4.498;2023-12-28T07:57:07;20.45;;;3.05;;
72413;SDS011;60995;52.154;4.498;2023-12-28T07:59:22;28.33;;;3.45;;
72413;SDS011;60995;52.154;4.498;2023-12-28T08:01:38;27.15;;;3.20;;
72413;SDS011;60995;52.154;4.498;2023-12-28T08:03:54;21.27;;;3.13;;
72413;SDS011;60995;52.154;4.498;2023-12-28T08:06:10;31.45;;;3.65;;
72413;SDS011;60995;52.154;4.498;2023-12-28T08:08:28;24.52;;;2.95;;
72413;SDS011;60995;52.154;4.498;2023-12-28T08:10:44;31.70;;;4.00;;
72413;SDS011;60995;52.154;4.498;2023-12-28T08:13:00;26.67;;;3.72;;
72413;SDS011;60995;52.154;4.498;2023-12-28T08:15:16;28.80;;;2.75;;
72413;SDS011;60995;52.154;4.498;2023-12-28T08:17:32;22.88;;;3.20;;
72413;SDS011;60995;52.154;4.498;2023-12-28T08:19:48;26.88;;;3.40;;
72413;SDS011;60995;52.154;4.498;2023-12-28T08:22:04;22.02;;;2.53;;
72413;SDS011;60995;52.154;4.498;2023-12-28T08:24:20;26.48;;;3.13;;
72413;SDS011;60995;52.154;4.498;2023-12-28T08:26:36;25.17;;;3.13;;
72413;SDS011;60995;52.154;4.498;2023-12-28T08:28:52;30.35;;;3.67;;
72413;SDS011;60995;52.154;4.498;2023-12-28T08:31:08;23.02;;;3.38;;
72413;SDS011;60995;52.154;4.498;2023-12-28T08:33:24;25.05;;;3.97;;
72413;SDS011;60995;52.154;4.498;2023-12-28T08:35:41;22.85;;;2.67;;
72413;SDS011;60995;52.154;4.498;2023-12-28T08:37:57;25.88;;;4.03;;
72413;SDS011;60995;52.154;4.498;2023-12-28T08:40:13;20.65;;;2.90;;
72413;SDS011;60995;52.154;4.498;2023-12-28T08:42:29;29.35;;;3.60;;
72413;SDS011;60995;52.154;4.498;2023-12-28T08:44:45;33.33;;;3.78;;
72413;SDS011;60995;52.154;4.498;2023-12-28T08:47:01;28.77;;;4.47;;
72413;SDS011;60995;52.154;4.498;2023-12-28T08:49:17;19.58;;;2.63;;
72413;SDS011;60995;52.154;4.498;2023-12-28T08:51:33;32.58;;;4.55;;
72413;SDS011;60995;52.154;4.498;2023-12-28T08:53:49;21.55;;;3.20;;
72413;SDS011;60995;52.154;4.498;2023-12-28T08:56:20;29.52;;;3.10;;
72413;SDS011;60995;52.154;4.498;2023-12-28T08:58:37;28.67;;;3.72;;
72413;SDS011;60995;52.154;4.498;2023-12-28T09:00:53;19.92;;;3.28;;
72413;SDS011;60995;52.154;4.498;2023-12-28T09:03:09;24.60;;;3.03;;
72413;SDS011;60995;52.154;4.498;2023-12-28T09:05:25;20.38;;;2.88;;
72413;SDS011;60995;52.154;4.498;2023-12-28T09:07:41;20.75;;;3.70;;
72413;SDS011;60995;52.154;4.498;2023-12-28T09:09:58;24.02;;;3.53;;
72413;SDS011;60995;52.154;4.498;2023-12-28T09:12:14;20.55;;;3.13;;
72413;SDS011;60995;52.154;4.498;2023-12-28T09:14:30;22.95;;;2.67;;
72413;SDS011;60995;52.154;4.498;2023-12-28T09:16:47;22.45;;;3.03;;
72413;SDS011;60995;52.154;4.498;2023-12-28T09:19:03;28.67;;;3.85;;
72413;SDS011;60995;52.154;4.498;2023-12-28T09:21:19;24.25;;;3.25;;
72413;SDS011;60995;52.154;4.498;2023-12-28T09:23:36;24.67;;;3.17;;
72413;SDS011;60995;52.154;4.498;2023-12-28T09:25:53;22.95;;;3.17;;
72413;SDS011;60995;52.154;4.498;2023-12-28T09:28:09;26.23;;;3.17;;
72413;SDS011;60995;52.154;4.498;2023-12-28T09:30:25;28.17;;;3.22;;
72413;SDS011;60995;52.154;4.498;2023-12-28T09:32:44;37.03;;;3.95;;
72413;SDS011;60995;52.154;4.498;2023-12-28T09:35:00;19.83;;;3.15;;
72413;SDS011;60995;52.154;4.498;2023-12-28T09:37:15;21.42;;;3.63;;
72413;SDS011;60995;52.154;4.498;2023-12-28T09:39:31;24.15;;;3.70;;
72413;SDS011;60995;52.154;4.498;2023-12-28T09:41:49;20.55;;;3.20;;
72413;SDS011;60995;52.154;4.498;2023-12-28T09:44:12;26.27;;;3.15;;
72413;SDS011;60995;52.154;4.498;2023-12-28T09:46:28;20.63;;;3.45;;
72413;SDS011;60995;52.154;4.498;2023-12-28T09:48:44;22.77;;;3.47;;
72413;SDS011;60995;52.154;4.498;2023-12-28T09:51:00;27.58;;;2.53;;
72413;SDS011;60995;52.154;4.498;2023-12-28T09:53:22;10.80;;;1.50;;
72413;SDS011;60995;52.154;4.498;2023-12-28T09:55:39;7.70;;;1.40;;
72413;SDS011;60995;52.154;4.498;2023-12-28T09:57:58;12.32;;;1.38;;
72413;SDS011;60995;52.154;4.498;2023-12-28T10:00:16;10.63;;;2.22;;
72413;SDS011;60995;52.154;4.498;2023-12-28T10:02:32;17.73;;;2.47;;
72413;SDS011;60995;52.154;4.498;2023-12-28T10:04:51;11.63;;;1.73;;
72413;SDS011;60995;52.154;4.498;2023-12-28T10:07:07;16.92;;;1.67;;
72413;SDS011;60995;52.154;4.498;2023-12-28T10:09:24;19.35;;;3.00;;
72413;SDS011;60995;52.154;4.498;2023-12-28T10:11:42;14.80;;;1.92;;
72413;SDS011;60995;52.154;4.498;2023-12-28T10:13:58;12.38;;;1.80;;
72413;SDS011;60995;52.154;4.498;2023-12-28T10:16:15;12.80;;;2.80;;
72413;SDS011;60995;52.154;4.498;2023-12-28T10:18:31;15.90;;;1.65;;
72413;SDS011;60995;52.154;4.498;2023-12-28T10:20:48;20.45;;;1.73;;
72413;SDS011;60995;52.154;4.498;2023-12-28T10:23:05;16.95;;;2.22;;
72413;SDS011;60995;52.154;4.498;2023-12-28T10:25:22;10.32;;;1.77;;
72413;SDS011;60995;52.154;4.498;2023-12-28T10:27:41;12.48;;;2.15;;
72413;SDS011;60995;52.154;4.498;2023-12-28T10:29:58;17.55;;;1.77;;
72413;SDS011;60995;52.154;4.498;2023-12-28T10:32:14;16.40;;;1.85;;
72413;SDS011;60995;52.154;4.498;2023-12-28T10:34:29;12.88;;;2.40;;
72413;SDS011;60995;52.154;4.498;2023-12-28T10:36:45;13.93;;;1.58;;
72413;SDS011;60995;52.154;4.498;2023-12-28T10:39:04;14.25;;;1.45;;
72413;SDS011;60995;52.154;4.498;2023-12-28T10:41:24;26.10;;;2.38;;
72413;SDS011;60995;52.154;4.498;2023-12-28T10:43:46;14.80;;;1.40;;
72413;SDS011;60995;52.154;4.498;2023-12-28T10:46:18;16.13;;;1.48;;
72413;SDS011;60995;52.154;4.498;2023-12-28T10:48:43;12.70;;;1.50;;
72413;SDS011;60995;52.154;4.498;2023-12-28T10:51:02;18.67;;;1.67;;
72413;SDS011;60995;52.154;4.498;2023-12-28T10:53:24;21.13;;;2.40;;
72413;SDS011;60995;52.154;4.498;2023-12-28T10:56:00;10.40;;;1.40;;
72413;SDS011;60995;52.154;4.498;2023-12-28T10:58:37;20.38;;;1.73;;
72413;SDS011;60995;52.154;4.498;2023-12-28T11:00:56;15.63;;;1.77;;
72413;SDS011;60995;52.154;4.498;2023-12-28T11:03:18;20.05;;;1.70;;
72413;SDS011;60995;52.154;4.498;2023-12-28T11:05:38;20.85;;;2.22;;
72413;SDS011;60995;52.154;4.498;2023-12-28T11:07:59;10.57;;;1.60;;
72413;SDS011;60995;52.154;4.498;2023-12-28T11:10:16;11.18;;;1.65;;
72413;SDS011;60995;52.154;4.498;2023-12-28T11:12:34;14.75;;;1.75;;
72413;SDS011;60995;52.154;4.498;2023-12-28T11:14:52;12.93;;;1.90;;
72413;SDS011;60995;52.154;4.498;2023-12-28T11:17:11;12.20;;;1.85;;
72413;SDS011;60995;52.154;4.498;2023-12-28T11:19:30;15.80;;;1.83;;
72413;SDS011;60995;52.154;4.498;2023-12-28T11:21:50;15.50;;;2.03;;
72413;SDS011;60995;52.154;4.498;2023-12-28T11:24:07;13.27;;;1.52;;
72413;SDS011;60995;52.154;4.498;2023-12-28T11:26:24;16.67;;;2.25;;
72413;SDS011;60995;52.154;4.498;2023-12-28T11:28:40;11.48;;;1.63;;
72413;SDS011;60995;52.154;4.498;2023-12-28T11:30:56;17.75;;;3.10;;
72413;SDS011;60995;52.154;4.498;2023-12-28T11:33:12;17.00;;;1.73;;
72413;SDS011;60995;52.154;4.498;2023-12-28T11:35:33;14.13;;;1.63;;
72413;SDS011;60995;52.154;4.498;2023-12-28T11:37:51;10.48;;;2.17;;
72413;SDS011;60995;52.154;4.498;2023-12-28T11:40:12;21.85;;;1.98;;
72413;SDS011;60995;52.154;4.498;2023-12-28T11:42:32;29.17;;;2.20;;
72413;SDS011;60995;52.154;4.498;2023-12-28T11:44:52;11.43;;;1.52;;
72413;SDS011;60995;52.154;4.498;2023-12-28T11:47:13;18.10;;;1.88;;
72413;SDS011;60995;52.154;4.498;2023-12-28T11:49:31;19.67;;;1.90;;
72413;SDS011;60995;52.154;4.498;2023-12-28T11:51:53;13.20;;;1.45;;
72413;SDS011;60995;52.154;4.498;2023-12-28T11:54:11;22.70;;;2.40;;
72413;SDS011;60995;52.154;4.498;2023-12-28T11:56:27;22.23;;;1.75;;
72413;SDS011;60995;52.154;4.498;2023-12-28T11:58:43;16.13;;;3.88;;
72413;SDS011;60995;52.154;4.498;2023-12-28T12:01:02;15.20;;;1.88;;
72413;SDS011;60995;52.154;4.498;2023-12-28T12:03:18;13.05;;;1.73;;
72413;SDS011;60995;52.154;4.498;2023-12-28T12:05:35;7.00;;;1.23;;
72413;SDS011;60995;52.154;4.498;2023-12-28T12:07:51;13.05;;;2.25;;
72413;SDS011;60995;52.154;4.498;2023-12-28T12:10:07;19.27;;;1.75;;
72413;SDS011;60995;52.154;4.498;2023-12-28T12:12:24;11.68;;;2.55;;
72413;SDS011;60995;52.154;4.498;2023-12-28T12:14:43;18.08;;;2.22;;
72413;SDS011;60995;52.154;4.498;2023-12-28T12:16:59;15.65;;;2.38;;
72413;SDS011;60995;52.154;4.498;2023-12-28T12:19:15;29.88;;;1.40;;
72413;SDS011;60995;52.154;4.498;2023-12-28T12:21:32;17.90;;;1.90;;
72413;SDS011;60995;52.154;4.498;2023-12-28T12:23:51;11.07;;;1.50;;
72413;SDS011;60995;52.154;4.498;2023-12-28T12:26:07;17.90;;;1.65;;
72413;SDS011;60995;52.154;4.498;2023-12-28T12:28:23;9.88;;;2.33;;
72413;SDS011;60995;52.154;4.498;2023-12-28T12:30:39;18.55;;;3.08;;
72413;SDS011;60995;52.154;4.498;2023-12-28T12:32:55;16.42;;;1.50;;
72413;SDS011;60995;52.154;4.498;2023-12-28T12:35:11;15.93;;;1.75;;
72413;SDS011;60995;52.154;4.498;2023-12-28T12:37:27;17.60;;;2.42;;
72413;SDS011;60995;52.154;4.498;2023-12-28T12:39:43;13.75;;;1.83;;
72413;SDS011;60995;52.154;4.498;2023-12-28T12:42:00;11.60;;;2.00;;
72413;SDS011;60995;52.154;4.498;2023-12-28T12:44:19;14.05;;;1.92;;
72413;SDS011;60995;52.154;4.498;2023-12-28T12:46:36;13.75;;;1.80;;
72413;SDS011;60995;52.154;4.498;2023-12-28T12:48:55;18.60;;;1.60;;
72413;SDS011;60995;52.154;4.498;2023-12-28T12:51:14;19.50;;;1.85;;
72413;SDS011;60995;52.154;4.498;2023-12-28T12:53:33;9.77;;;1.38;;
72413;SDS011;60995;52.154;4.498;2023-12-28T12:55:53;11.95;;;2.67;;
72413;SDS011;60995;52.154;4.498;2023-12-28T12:58:10;21.55;;;2.30;;
72413;SDS011;60995;52.154;4.498;2023-12-28T13:00:28;11.48;;;2.40;;
72413;SDS011;60995;52.154;4.498;2023-12-28T13:02:44;9.25;;;1.42;;
72413;SDS011;60995;52.154;4.498;2023-12-28T13:05:00;14.38;;;2.40;;
72413;SDS011;60995;52.154;4.498;2023-12-28T13:07:16;15.23;;;1.95;;
72413;SDS011;60995;52.154;4.498;2023-12-28T13:09:32;12.63;;;2.92;;
72413;SDS011;60995;52.154;4.498;2023-12-28T13:11:48;14.60;;;1.80;;
72413;SDS011;60995;52.154;4.498;2023-12-28T13:14:05;13.27;;;1.50;;
72413;SDS011;60995;52.154;4.498;2023-12-28T13:16:21;10.00;;;2.08;;
72413;SDS011;60995;52.154;4.498;2023-12-28T13:18:38;17.83;;;2.00;;
72413;SDS011;60995;52.154;4.498;2023-12-28T13:20:54;11.68;;;2.35;;
72413;SDS011;60995;52.154;4.498;2023-12-28T13:23:11;13.75;;;2.22;;
72413;SDS011;60995;52.154;4.498;2023-12-28T13:25:27;16.35;;;1.85;;
72413;SDS011;60995;52.154;4.498;2023-12-28T13:27:43;11.75;;;2.58;;
72413;SDS011;60995;52.154;4.498;2023-12-28T13:29:59;12.75;;;1.88;;
72413;SDS011;60995;52.154;4.498;2023-12-28T13:32:15;23.33;;;2.72;;
72413;SDS011;60995;52.154;4.498;2023-12-28T13:34:31;16.05;;;2.55;;